createdAt,value
2023-03-02T00:01:50.072Z,99.09
2023-03-02T00:04:22.410Z,98.83
2023-03-02T00:06:53.115Z,98.11
2023-03-02T00:09:21.593Z,98.93
2023-03-02T00:11:52.961Z,98.35
2023-03-02T00:14:21.339Z,99.38
2023-03-02T00:16:49.839Z,99.09
2023-03-02T00:19:18.189Z,98.94
2023-03-02T00:21:46.531Z,99.44
2023-03-02T00:24:15.837Z,98.89
2023-03-02T00:26:44.220Z,97.98
2023-03-02T00:29:14.067Z,97.49
2023-03-02T00:31:42.575Z,97.91
2023-03-02T00:34:11.011Z,98.50
2023-03-02T00:36:40.134Z,99.24
2023-03-02T00:39:08.882Z,98.25
2023-03-02T00:41:37.247Z,97.38
2023-03-02T00:44:05.824Z,97.89
2023-03-02T00:46:35.833Z,98.55
2023-03-02T00:49:04.475Z,98.00
2023-03-02T00:51:32.845Z,97.93
2023-03-02T00:54:02.740Z,98.87
2023-03-02T00:56:31.760Z,97.66
2023-03-02T00:59:00.304Z,97.26
2023-03-02T01:01:28.627Z,97.34
2023-03-02T01:03:58.531Z,97.11
2023-03-02T01:06:27.384Z,97.54
2023-03-02T01:08:55.705Z,97.72
2023-03-02T01:11:24.712Z,97.20
2023-03-02T01:13:53.142Z,96.41
2023-03-02T01:16:21.538Z,96.56
2023-03-02T01:18:50.544Z,96.23
2023-03-02T01:21:21.097Z,96.73
2023-03-02T01:23:49.397Z,96.25
2023-03-02T01:26:17.686Z,96.21
2023-03-02T01:28:46.544Z,96.02
2023-03-02T01:31:15.050Z,95.93
2023-03-02T01:33:43.458Z,95.92
2023-03-02T01:36:11.848Z,95.69
2023-03-02T01:38:41.671Z,95.39
2023-03-02T01:41:10.590Z,95.45
2023-03-02T01:43:39.121Z,94.99
2023-03-02T01:46:14.408Z,94.79
2023-03-02T01:48:48.936Z,94.86
2023-03-02T01:51:20.536Z,94.76
2023-03-02T01:53:55.484Z,94.66
2023-03-02T01:56:28.674Z,94.02
2023-03-02T01:59:02.813Z,93.99
2023-03-02T02:01:33.665Z,93.84
2023-03-02T02:04:03.075Z,93.99
2023-03-02T02:06:36.262Z,94.20
2023-03-02T02:09:09.138Z,94.31
2023-03-02T02:11:37.668Z,93.71
2023-03-02T02:14:06.093Z,93.62
2023-03-02T02:16:36.668Z,93.46
2023-03-02T02:19:11.574Z,92.74
2023-03-02T02:21:40.481Z,92.34
2023-03-02T02:24:13.673Z,92.57
2023-03-02T02:26:47.391Z,91.80
2023-03-02T02:29:22.869Z,92.69
2023-03-02T02:31:56.786Z,92.88
2023-03-02T02:34:30.612Z,92.59
2023-03-02T02:37:04.721Z,92.52
2023-03-02T02:39:36.556Z,92.14
2023-03-02T02:42:13.385Z,92.29
2023-03-02T02:44:41.799Z,92.38
2023-03-02T02:47:18.201Z,91.79
2023-03-02T02:49:48.023Z,91.67
2023-03-02T02:52:19.144Z,91.93
2023-03-02T02:54:50.785Z,92.88
2023-03-02T02:57:21.817Z,92.31
2023-03-02T02:59:52.992Z,92.08
2023-03-02T03:02:24.789Z,92.74
2023-03-02T03:05:02.615Z,92.04
2023-03-02T03:07:33.300Z,91.05
2023-03-02T03:10:06.124Z,90.96
2023-03-02T03:12:36.751Z,90.50
2023-03-02T03:15:06.660Z,89.64
2023-03-02T03:17:35.197Z,90.16
2023-03-02T03:20:07.941Z,89.94
2023-03-02T03:22:37.649Z,90.21
2023-03-02T03:25:06.749Z,90.22
2023-03-02T03:27:36.859Z,89.12
2023-03-02T03:30:05.730Z,88.73
2023-03-02T03:32:35.568Z,88.29
2023-03-02T03:35:08.808Z,88.87
2023-03-02T03:37:37.529Z,88.74
2023-03-02T03:40:07.083Z,88.30
2023-03-02T03:42:37.894Z,88.93
2023-03-02T03:45:08.672Z,88.40
2023-03-02T03:47:37.787Z,88.11
2023-03-02T03:50:06.836Z,88.67
2023-03-02T03:52:35.426Z,88.19
2023-03-02T03:55:04.250Z,88.12
2023-03-02T03:57:32.585Z,88.19
2023-03-02T04:00:02.385Z,88.25
2023-03-02T04:02:30.843Z,88.47
2023-03-02T04:05:06.359Z,88.50
2023-03-02T04:07:35.219Z,88.40
2023-03-02T04:10:04.687Z,88.75
2023-03-02T04:12:33.855Z,88.84
2023-03-02T04:15:03.845Z,88.42
2023-03-02T04:17:32.239Z,88.01
2023-03-02T04:20:00.832Z,89.02
2023-03-02T04:22:29.252Z,88.33
2023-03-02T04:24:57.716Z,88.78
2023-03-02T04:27:26.495Z,89.74
2023-03-02T04:29:54.797Z,89.53
2023-03-02T04:32:24.558Z,89.47
2023-03-02T04:34:53.090Z,89.15
2023-03-02T04:37:21.409Z,89.17
2023-03-02T04:39:51.720Z,88.75
2023-03-02T04:42:20.204Z,88.57
2023-03-02T04:44:48.884Z,89.15
2023-03-02T04:47:17.303Z,88.41
2023-03-02T04:49:47.092Z,86.82
2023-03-02T04:52:15.515Z,87.07
2023-03-02T04:54:43.828Z,87.35
2023-03-02T04:57:12.196Z,87.51
2023-03-02T04:59:40.546Z,87.44
2023-03-02T05:02:09.130Z,87.34
2023-03-02T05:04:37.484Z,86.95
2023-03-02T05:07:07.293Z,87.08
2023-03-02T05:09:35.776Z,88.18
2023-03-02T05:12:04.255Z,88.50
2023-03-02T05:14:33.033Z,88.54
2023-03-02T05:17:01.327Z,89.23
2023-03-02T05:19:29.879Z,88.92
2023-03-02T05:21:58.302Z,89.44
2023-03-02T05:24:28.453Z,89.71
2023-03-02T05:26:56.844Z,89.70
2023-03-02T05:29:25.150Z,89.72
2023-03-02T05:31:53.572Z,90.16
2023-03-02T05:34:22.363Z,90.36
2023-03-02T05:36:50.748Z,90.41
2023-03-02T05:39:19.038Z,90.96
2023-03-02T05:41:48.909Z,90.60
2023-03-02T05:44:17.233Z,90.89
2023-03-02T05:46:45.684Z,91.50
2023-03-02T05:49:14.077Z,91.85
2023-03-02T05:51:42.383Z,92.31
2023-03-02T05:54:10.904Z,91.52
2023-03-02T05:56:39.215Z,91.60
2023-03-02T05:59:09.331Z,92.06
2023-03-02T06:01:38.582Z,91.51
2023-03-02T06:04:07.310Z,90.47
2023-03-02T06:06:35.970Z,90.30
2023-03-02T06:09:04.560Z,90.25
2023-03-02T06:11:32.980Z,90.35
2023-03-02T06:14:01.259Z,89.86
2023-03-02T06:16:31.850Z,90.22
2023-03-02T06:19:00.465Z,89.46
2023-03-02T06:21:28.913Z,89.52
2023-03-02T06:23:57.263Z,89.19
2023-03-02T06:26:25.770Z,88.57
2023-03-02T06:28:54.264Z,87.01
2023-03-02T06:31:22.968Z,87.18
2023-03-02T06:33:52.872Z,86.62
2023-03-02T06:36:21.299Z,86.27
2023-03-02T06:38:49.866Z,85.77
2023-03-02T06:41:18.349Z,84.32
2023-03-02T06:43:46.732Z,84.45
2023-03-02T06:46:15.124Z,85.27
2023-03-02T06:48:43.516Z,85.84
2023-03-02T06:51:13.942Z,86.12
2023-03-02T06:53:42.330Z,86.33
2023-03-02T06:56:11.071Z,84.53
2023-03-02T06:58:39.395Z,85.05
2023-03-02T07:01:09.117Z,85.25
2023-03-02T07:03:37.697Z,85.10
2023-03-02T07:06:06.737Z,84.21
2023-03-02T07:08:36.868Z,84.95
2023-03-02T07:11:07.741Z,84.52
2023-03-02T07:13:38.079Z,85.49
2023-03-02T07:16:10.693Z,84.60
2023-03-02T07:18:39.338Z,84.24
2023-03-02T07:21:07.805Z,83.91
2023-03-02T07:23:37.813Z,85.69
2023-03-02T07:26:08.969Z,85.25
2023-03-02T07:28:39.593Z,86.17
2023-03-02T07:31:08.733Z,88.02
2023-03-02T07:33:37.851Z,85.65
2023-03-02T07:36:07.437Z,86.49
2023-03-02T07:38:38.872Z,85.83
2023-03-02T07:41:11.234Z,85.68
2023-03-02T07:43:40.028Z,85.80
2023-03-02T07:46:08.442Z,86.45
2023-03-02T07:48:36.930Z,84.55
2023-03-02T07:51:07.409Z,86.56
2023-03-02T07:53:37.159Z,86.10
2023-03-02T07:56:11.582Z,85.11
2023-03-02T07:58:40.263Z,85.71
2023-03-02T08:01:08.969Z,85.21
2023-03-02T08:03:37.535Z,85.02
2023-03-02T08:06:07.713Z,85.98
2023-03-02T08:08:38.338Z,85.80
2023-03-02T08:11:07.850Z,84.65
2023-03-02T08:13:36.240Z,84.53
2023-03-02T08:16:06.718Z,84.23
2023-03-02T08:18:36.021Z,84.41
2023-03-02T08:21:04.497Z,85.24
2023-03-02T08:23:32.908Z,85.26
2023-03-02T08:26:02.666Z,86.62
2023-03-02T08:28:31.090Z,87.41
2023-03-02T08:31:00.707Z,86.78
2023-03-02T08:33:30.340Z,86.27
2023-03-02T08:36:00.490Z,84.97
2023-03-02T08:38:30.084Z,86.04
2023-03-02T08:40:58.844Z,85.40
2023-03-02T08:43:28.526Z,85.23
2023-03-02T08:45:57.984Z,85.93
2023-03-02T08:48:27.710Z,86.27
2023-03-02T08:50:58.182Z,86.62
2023-03-02T08:53:27.409Z,86.03
2023-03-02T08:55:55.683Z,84.67
2023-03-02T08:58:24.405Z,84.83
2023-03-02T09:00:54.214Z,84.72
2023-03-02T09:03:22.625Z,83.64
2023-03-02T09:05:51.220Z,83.84
2023-03-02T09:08:19.495Z,84.58
2023-03-02T09:10:47.762Z,84.21
2023-03-02T09:13:16.097Z,83.64
2023-03-02T09:15:44.420Z,84.03
2023-03-02T09:18:14.262Z,82.44
2023-03-02T09:20:42.552Z,80.93
2023-03-02T09:23:12.590Z,80.29
2023-03-02T09:25:40.898Z,78.92
2023-03-02T09:28:09.653Z,78.03
2023-03-02T09:30:38.050Z,77.06
2023-03-02T09:33:06.460Z,76.30
2023-03-02T09:35:36.332Z,76.00
2023-03-02T09:38:04.761Z,74.06
2023-03-02T09:40:34.775Z,74.91
2023-03-02T09:43:19.540Z,74.01
2023-03-02T09:46:09.737Z,73.63
2023-03-02T09:48:46.972Z,73.31
2023-03-02T09:51:33.380Z,71.67
2023-03-02T09:54:08.194Z,71.20
2023-03-02T09:56:41.029Z,72.46
2023-03-02T09:59:21.469Z,69.94
2023-03-02T10:01:55.618Z,70.75
2023-03-02T10:04:28.997Z,71.00
2023-03-02T10:07:07.538Z,71.01
2023-03-02T10:09:35.901Z,70.47
2023-03-02T10:12:23.416Z,71.65
2023-03-02T10:14:58.225Z,71.99
2023-03-02T10:17:47.708Z,69.13
2023-03-02T10:20:22.801Z,68.77
2023-03-02T10:22:57.991Z,70.15
2023-03-02T10:25:37.732Z,69.95
2023-03-02T10:28:17.924Z,72.43
2023-03-02T10:30:47.488Z,69.39
2023-03-02T10:33:19.119Z,69.22
2023-03-02T10:35:49.644Z,68.05
2023-03-02T10:38:21.155Z,67.47
2023-03-02T10:40:53.254Z,66.91
2023-03-02T10:43:31.401Z,66.20
2023-03-02T10:46:01.620Z,64.45
2023-03-02T10:48:30.065Z,63.87
2023-03-02T10:51:00.620Z,64.20
2023-03-02T10:53:30.432Z,63.56
2023-03-02T10:55:58.714Z,64.06
2023-03-02T10:58:31.149Z,66.08
2023-03-02T11:01:02.254Z,63.85
2023-03-02T11:03:31.107Z,62.76
2023-03-02T11:06:00.611Z,63.10
2023-03-02T11:08:31.867Z,64.41
2023-03-02T11:11:03.332Z,66.73
2023-03-02T11:13:33.633Z,68.04
2023-03-02T11:16:03.427Z,69.99
2023-03-02T11:18:38.425Z,71.67
2023-03-02T11:21:10.312Z,72.06
2023-03-02T11:23:53.709Z,70.87
2023-03-02T11:26:26.041Z,73.40
2023-03-02T11:29:02.293Z,72.66
2023-03-02T11:31:37.702Z,70.87
2023-03-02T11:34:44.229Z,72.16
2023-03-02T11:37:19.898Z,71.73
2023-03-02T11:40:02.058Z,73.65
2023-03-02T11:42:33.383Z,74.07
2023-03-02T11:45:05.482Z,72.43
2023-03-02T11:47:35.098Z,73.52
2023-03-02T11:50:08.228Z,72.79
2023-03-02T11:52:41.006Z,72.16
2023-03-02T11:55:19.776Z,72.25
2023-03-02T11:57:51.335Z,72.78
2023-03-02T12:00:29.191Z,72.47
2023-03-02T12:03:06.464Z,74.66
2023-03-02T12:05:37.004Z,73.56
2023-03-02T12:08:08.011Z,72.69
2023-03-02T12:10:41.790Z,74.09
2023-03-02T12:13:18.698Z,74.68
2023-03-02T12:15:48.544Z,74.16
2023-03-02T12:18:46.501Z,74.21
2023-03-02T12:21:17.839Z,73.33
2023-03-02T12:24:04.149Z,74.73
2023-03-02T12:26:38.654Z,76.60
2023-03-02T12:29:23.950Z,73.98
2023-03-02T12:31:54.715Z,74.57
2023-03-02T12:34:37.808Z,73.29
2023-03-02T12:37:14.232Z,71.69
2023-03-02T12:40:04.939Z,71.59
2023-03-02T12:42:50.738Z,69.26
2023-03-02T12:45:33.253Z,70.81
2023-03-02T12:48:06.540Z,72.52
2023-03-02T12:50:40.915Z,72.45
2023-03-02T12:53:18.609Z,73.77
2023-03-02T12:55:47.240Z,75.59
2023-03-02T12:58:21.598Z,76.45
2023-03-02T13:00:54.656Z,76.54
2023-03-02T13:03:23.124Z,74.99
2023-03-02T13:05:51.416Z,75.34
2023-03-02T13:08:24.380Z,76.21
2023-03-02T13:10:54.823Z,76.47
2023-03-02T13:13:27.553Z,76.30
2023-03-02T13:15:57.999Z,76.52
2023-03-02T13:18:31.906Z,77.04
2023-03-02T13:21:01.179Z,77.17
2023-03-02T13:23:30.997Z,76.54
2023-03-02T13:26:01.364Z,76.58
2023-03-02T13:28:34.024Z,75.55
2023-03-02T13:31:05.616Z,76.83
2023-03-02T13:33:36.096Z,78.38
2023-03-02T13:36:04.628Z,79.95
2023-03-02T13:38:37.836Z,82.86
2023-03-02T13:41:06.566Z,83.30
2023-03-02T13:43:40.841Z,82.29
2023-03-02T13:46:31.542Z,83.21
2023-03-02T13:49:11.238Z,83.73
2023-03-02T13:51:42.534Z,82.96
2023-03-02T13:54:22.536Z,83.00
2023-03-02T13:56:52.552Z,82.32
2023-03-02T13:59:23.737Z,81.37
2023-03-02T14:01:52.606Z,80.59
2023-03-02T14:04:23.587Z,79.67
2023-03-02T14:06:54.470Z,80.43
2023-03-02T14:09:23.436Z,79.01
2023-03-02T14:11:54.672Z,78.77
2023-03-02T14:14:28.017Z,79.54
2023-03-02T14:16:56.366Z,79.25
2023-03-02T14:19:24.651Z,80.15
2023-03-02T14:21:53.056Z,80.86
2023-03-02T14:24:21.856Z,80.64
2023-03-02T14:26:50.973Z,80.37
2023-03-02T14:29:27.472Z,81.21
2023-03-02T14:31:56.659Z,81.22
2023-03-02T14:34:25.186Z,81.76
2023-03-02T14:36:55.882Z,81.47
2023-03-02T14:39:33.567Z,81.94
2023-03-02T14:42:01.917Z,81.45
2023-03-02T14:44:31.711Z,82.08
2023-03-02T14:46:59.986Z,82.11
2023-03-02T14:49:29.882Z,82.88
2023-03-02T14:52:02.587Z,83.71
2023-03-02T14:54:37.288Z,83.37
2023-03-02T14:57:08.148Z,83.53
2023-03-02T14:59:37.880Z,84.00
2023-03-02T15:02:15.876Z,84.12
2023-03-02T15:04:55.980Z,83.59
2023-03-02T15:07:25.696Z,83.63
2023-03-02T15:09:54.033Z,84.05
2023-03-02T15:12:22.548Z,84.75
2023-03-02T15:14:52.313Z,84.48
2023-03-02T15:17:20.675Z,84.23
2023-03-02T15:19:49.045Z,84.76
2023-03-02T15:22:17.948Z,85.15
2023-03-02T15:24:46.307Z,85.18
2023-03-02T15:27:14.590Z,85.84
2023-03-02T15:29:45.258Z,85.97
2023-03-02T15:32:15.422Z,86.69
2023-03-02T15:34:44.206Z,87.27
2023-03-02T15:37:13.023Z,87.52
2023-03-02T15:39:41.449Z,88.46
2023-03-02T15:42:10.789Z,89.05
2023-03-02T15:44:40.326Z,88.99
2023-03-02T15:47:08.644Z,89.28
2023-03-02T15:49:38.544Z,90.01
2023-03-02T15:52:07.665Z,90.91
2023-03-02T15:54:36.003Z,91.51
2023-03-02T15:57:04.285Z,92.27
2023-03-02T15:59:34.272Z,92.98
2023-03-02T16:02:02.610Z,94.18
2023-03-02T16:04:32.664Z,95.50
2023-03-02T16:07:02.612Z,96.23
2023-03-02T16:09:31.542Z,97.42
2023-03-02T16:11:59.955Z,98.32
2023-03-02T16:14:28.235Z,98.05
2023-03-02T16:16:56.512Z,98.69
2023-03-02T16:19:24.881Z,97.55
2023-03-02T16:21:53.223Z,97.28
2023-03-02T16:24:23.004Z,96.02
2023-03-02T16:26:54.167Z,96.08
2023-03-02T16:29:22.764Z,96.26
2023-03-02T16:31:51.601Z,96.90
2023-03-02T16:34:19.961Z,97.07
2023-03-02T16:36:48.293Z,97.63
2023-03-02T16:39:16.848Z,97.91
2023-03-02T16:41:47.223Z,97.96
2023-03-02T16:44:16.247Z,98.62
2023-03-02T16:46:44.885Z,99.23
2023-03-02T16:49:14.496Z,99.33
2023-03-02T16:51:43.645Z,99.72
2023-03-02T16:54:15.251Z,100.00
2023-03-02T16:56:47.404Z,100.00
2023-03-02T16:59:18.852Z,100.00
2023-03-02T17:01:47.356Z,98.99
2023-03-02T17:04:18.489Z,99.58
2023-03-02T17:07:03.114Z,100.00
2023-03-02T17:09:32.576Z,100.00
2023-03-02T17:12:01.077Z,100.00
2023-03-02T17:14:31.089Z,100.00
2023-03-02T17:16:59.470Z,100.00
2023-03-02T17:19:29.614Z,100.00
2023-03-02T17:21:58.667Z,100.00
2023-03-02T17:24:27.479Z,100.00
2023-03-02T17:26:56.056Z,100.00
2023-03-02T17:29:24.633Z,100.00
2023-03-02T17:31:54.486Z,100.00
2023-03-02T17:34:23.172Z,100.00
2023-03-02T17:36:51.528Z,100.00
2023-03-02T17:39:19.793Z,100.00
2023-03-02T17:41:48.172Z,100.00
2023-03-02T17:44:16.570Z,100.00
2023-03-02T17:46:46.146Z,100.00
2023-03-02T17:49:15.853Z,100.00
2023-03-02T17:51:44.758Z,100.00
2023-03-02T17:54:13.205Z,100.00
2023-03-02T17:56:41.653Z,100.00
2023-03-02T17:59:10.055Z,100.00
2023-03-02T18:01:38.519Z,100.00
2023-03-02T18:04:07.100Z,100.00
2023-03-02T18:06:37.003Z,100.00
2023-03-02T18:09:05.551Z,100.00
2023-03-02T18:11:35.257Z,100.00
2023-03-02T18:14:03.614Z,100.00
2023-03-02T18:16:34.115Z,100.00
2023-03-02T18:19:02.720Z,100.00
2023-03-02T18:21:31.179Z,100.00
2023-03-02T18:24:00.945Z,100.00
2023-03-02T18:26:29.420Z,100.00
2023-03-02T18:28:57.743Z,100.00
2023-03-02T18:31:26.268Z,100.00
2023-03-02T18:33:54.742Z,100.00
2023-03-02T18:36:23.107Z,100.00
2023-03-02T18:38:53.114Z,100.00
2023-03-02T18:41:24.571Z,100.00
2023-03-02T18:43:53.413Z,100.00
2023-03-02T18:46:24.500Z,100.00
2023-03-02T18:48:54.118Z,100.00
2023-03-02T18:51:24.461Z,100.00
2023-03-02T18:53:53.280Z,100.00
2023-03-02T18:56:23.633Z,100.00
2023-03-02T18:58:52.084Z,100.00
2023-03-02T19:01:20.988Z,100.00
2023-03-02T19:03:50.197Z,100.00
2023-03-02T19:06:20.598Z,100.00
2023-03-02T19:08:49.628Z,100.00
2023-03-02T19:11:18.024Z,100.00
2023-03-02T19:13:47.828Z,100.00
2023-03-02T19:16:18.380Z,100.00
2023-03-02T19:18:46.918Z,100.00
2023-03-02T19:21:15.213Z,100.00
2023-03-02T19:23:45.567Z,100.00
2023-03-02T19:26:14.838Z,100.00
2023-03-02T19:28:43.187Z,100.00
2023-03-02T19:31:13.882Z,100.00
2023-03-02T19:33:43.286Z,100.00
2023-03-02T19:36:12.464Z,100.00
2023-03-02T19:38:42.920Z,100.00
2023-03-02T19:41:14.269Z,100.00
2023-03-02T19:43:42.929Z,100.00
2023-03-02T19:46:13.018Z,100.00
2023-03-02T19:48:42.113Z,100.00
2023-03-02T19:51:12.099Z,100.00
2023-03-02T19:53:41.361Z,100.00
2023-03-02T19:56:12.870Z,100.00
2023-03-02T19:58:47.588Z,100.00
2023-03-02T20:01:21.982Z,100.00
2023-03-02T20:03:51.886Z,100.00
2023-03-02T20:06:21.029Z,100.00
2023-03-02T20:08:49.874Z,100.00
2023-03-02T20:11:18.601Z,100.00
2023-03-02T20:13:48.333Z,100.00
2023-03-02T20:16:19.577Z,100.00
2023-03-02T20:18:47.934Z,100.00
2023-03-02T20:21:16.318Z,100.00
2023-03-02T20:23:44.700Z,100.00
2023-03-02T20:26:13.631Z,100.00
2023-03-02T20:28:42.506Z,100.00
2023-03-02T20:31:13.072Z,100.00
2023-03-02T20:33:46.479Z,100.00
2023-03-02T20:36:16.275Z,100.00
2023-03-02T20:38:47.161Z,100.00
2023-03-02T20:41:16.266Z,100.00
2023-03-02T20:43:45.249Z,100.00
2023-03-02T20:46:20.353Z,100.00
2023-03-02T20:48:50.184Z,100.00
2023-03-02T20:51:18.583Z,100.00
2023-03-02T20:53:47.221Z,100.00
2023-03-02T20:56:17.379Z,100.00
2023-03-02T20:58:47.150Z,100.00
2023-03-02T21:01:17.450Z,100.00
2023-03-02T21:03:46.546Z,100.00
2023-03-02T21:06:17.088Z,100.00
2023-03-02T21:08:47.816Z,100.00
2023-03-02T21:11:18.865Z,100.00
2023-03-02T21:13:48.989Z,100.00
2023-03-02T21:16:19.334Z,100.00
2023-03-02T21:18:47.927Z,100.00
2023-03-02T21:21:20.172Z,100.00
2023-03-02T21:23:51.647Z,100.00
2023-03-02T21:26:20.386Z,100.00
2023-03-02T21:28:49.421Z,100.00
2023-03-02T21:31:19.854Z,100.00
2023-03-02T21:33:49.765Z,100.00
2023-03-02T21:36:22.566Z,100.00
2023-03-02T21:38:51.605Z,100.00
2023-03-02T21:41:20.432Z,100.00
2023-03-02T21:43:49.266Z,100.00
2023-03-02T21:46:19.911Z,100.00
2023-03-02T21:48:49.524Z,100.00
2023-03-02T21:51:19.698Z,100.00
2023-03-02T21:53:48.280Z,100.00
2023-03-02T21:56:20.654Z,100.00
2023-03-02T21:58:52.843Z,100.00
2023-03-02T22:01:21.797Z,100.00
2023-03-02T22:03:50.373Z,100.00
2023-03-02T22:06:22.788Z,100.00
2023-03-02T22:08:52.460Z,100.00
2023-03-02T22:11:23.313Z,100.00
2023-03-02T22:13:52.419Z,100.00
2023-03-02T22:16:22.023Z,100.00
2023-03-02T22:18:54.820Z,100.00
2023-03-02T22:21:30.248Z,100.00
2023-03-02T22:24:07.470Z,100.00
2023-03-02T22:26:40.780Z,100.00
2023-03-02T22:29:15.711Z,100.00
2023-03-02T22:31:47.332Z,100.00
2023-03-02T22:34:20.109Z,100.00
2023-03-02T22:37:12.760Z,100.00
2023-03-02T22:39:42.402Z,100.00
2023-03-02T22:42:15.042Z,100.00
2023-03-02T22:44:45.031Z,100.00
2023-03-02T22:47:17.901Z,100.00
2023-03-02T22:49:46.620Z,100.00
2023-03-02T22:52:19.233Z,100.00
2023-03-02T22:54:47.589Z,100.00
2023-03-02T22:57:29.385Z,100.00
2023-03-02T23:00:30.250Z,100.00
2023-03-02T23:02:58.903Z,100.00
2023-03-02T23:05:29.598Z,100.00
2023-03-02T23:08:21.323Z,100.00
2023-03-02T23:10:50.760Z,100.00
2023-03-02T23:13:21.896Z,100.00
2023-03-02T23:15:52.565Z,100.00
2023-03-02T23:18:24.762Z,100.00
2023-03-02T23:20:53.889Z,100.00
2023-03-02T23:23:25.456Z,100.00
2023-03-02T23:25:54.192Z,100.00
2023-03-02T23:28:22.661Z,100.00
2023-03-02T23:30:51.310Z,100.00
2023-03-02T23:33:19.681Z,100.00
2023-03-02T23:35:48.396Z,100.00
2023-03-02T23:38:16.885Z,100.00
2023-03-02T23:40:46.622Z,100.00
2023-03-02T23:43:14.997Z,100.00
2023-03-02T23:45:43.482Z,100.00
2023-03-02T23:48:11.728Z,100.00
2023-03-02T23:50:40.078Z,100.00
2023-03-02T23:53:08.389Z,100.00
2023-03-02T23:55:37.607Z,100.00
2023-03-02T23:58:07.324Z,100.00
